createdAt,value
2022-12-23T00:01:27.471Z,3.75
2022-12-23T00:04:00.213Z,4.32
2022-12-23T00:06:28.891Z,3.25
2022-12-23T00:08:59.356Z,3.38
2022-12-23T00:11:29.516Z,3.50
2022-12-23T00:14:29.943Z,3.20
2022-12-23T00:16:58.310Z,3.75
2022-12-23T00:19:31.122Z,3.50
2022-12-23T00:21:59.454Z,3.25
2022-12-23T00:24:27.872Z,3.00
2022-12-23T00:26:56.218Z,3.60
2022-12-23T00:29:24.693Z,3.47
2022-12-23T00:31:53.018Z,2.85
2022-12-23T00:34:21.399Z,3.55
2022-12-23T00:36:51.102Z,3.30
2022-12-23T00:39:36.687Z,3.08
2022-12-23T00:42:22.398Z,3.22
2022-12-23T00:44:50.794Z,3.00
2022-12-23T00:47:32.930Z,3.25
2022-12-23T00:50:01.367Z,3.60
2022-12-23T00:52:31.078Z,3.20
2022-12-23T00:54:59.537Z,2.90
2022-12-23T00:57:27.821Z,3.22
2022-12-23T00:59:56.165Z,2.58
2022-12-23T01:02:42.080Z,2.42
2022-12-23T01:05:29.645Z,2.70
2022-12-23T01:07:59.448Z,2.88
2022-12-23T01:10:27.825Z,2.90
2022-12-23T01:12:56.198Z,2.80
2022-12-23T01:15:24.625Z,2.17
2022-12-23T01:17:52.903Z,2.20
2022-12-23T01:20:21.719Z,2.40
2022-12-23T01:22:50.045Z,2.40
2022-12-23T01:25:19.705Z,2.33
2022-12-23T01:27:48.080Z,2.67
2022-12-23T01:30:16.588Z,2.50
2022-12-23T01:32:44.900Z,2.28
2022-12-23T01:35:13.203Z,2.58
2022-12-23T01:37:41.675Z,2.50
2022-12-23T01:40:11.084Z,2.40
2022-12-23T01:45:18.923Z,2.13
2022-12-23T01:47:51.843Z,2.45
2022-12-23T01:50:24.070Z,2.85
2022-12-23T01:53:04.591Z,2.78
2022-12-23T01:55:40.089Z,2.75
2022-12-23T01:58:13.239Z,2.90
2022-12-23T02:01:01.133Z,3.20
2022-12-23T02:03:45.233Z,3.65
2022-12-23T02:06:37.615Z,2.65
2022-12-23T02:09:19.060Z,2.78
2022-12-23T02:12:29.880Z,2.83
2022-12-23T02:15:33.643Z,2.63
2022-12-23T02:18:35.448Z,2.17
2022-12-23T02:21:21.617Z,1.90
2022-12-23T02:24:37.333Z,2.17
2022-12-23T02:27:16.529Z,1.70
2022-12-23T02:30:20.032Z,1.73
2022-12-23T02:33:11.394Z,2.15
2022-12-23T02:35:46.475Z,1.77
2022-12-23T02:38:21.985Z,2.00
2022-12-23T02:40:59.546Z,2.35
2022-12-23T02:43:36.852Z,2.08
2022-12-23T02:46:10.677Z,2.45
2022-12-23T02:48:46.939Z,2.05
2022-12-23T02:51:16.677Z,2.10
2022-12-23T02:53:51.400Z,2.55
2022-12-23T02:56:22.131Z,2.00
2022-12-23T02:59:02.904Z,2.25
2022-12-23T03:01:34.487Z,1.98
2022-12-23T03:04:06.551Z,2.00
2022-12-23T03:06:40.180Z,2.22
2022-12-23T03:09:09.367Z,2.53
2022-12-23T03:11:47.131Z,2.30
2022-12-23T03:14:43.427Z,2.00
2022-12-23T03:17:34.479Z,2.53
2022-12-23T03:20:10.550Z,2.47
2022-12-23T03:22:44.990Z,2.70
2022-12-23T03:25:20.427Z,2.30
2022-12-23T03:27:55.909Z,2.33
2022-12-23T03:30:24.949Z,2.20
2022-12-23T03:32:57.263Z,2.25
2022-12-23T03:35:31.535Z,2.13
2022-12-23T03:38:01.718Z,2.35
2022-12-23T03:40:35.233Z,2.45
2022-12-23T03:43:09.575Z,2.17
2022-12-23T03:45:41.880Z,2.17
2022-12-23T03:48:17.272Z,1.95
2022-12-23T03:50:49.796Z,2.83
2022-12-23T03:53:23.621Z,2.28
2022-12-23T03:55:56.970Z,2.00
2022-12-23T03:58:34.708Z,2.15
2022-12-23T04:01:10.525Z,2.08
2022-12-23T04:03:45.222Z,2.00
2022-12-23T04:06:18.768Z,2.20
2022-12-23T04:08:49.262Z,2.17
2022-12-23T04:11:20.723Z,2.03
2022-12-23T04:13:49.536Z,2.00
2022-12-23T04:16:19.406Z,1.90
2022-12-23T04:18:47.732Z,1.73
2022-12-23T04:21:17.408Z,2.00
2022-12-23T04:23:45.877Z,1.83
2022-12-23T04:26:14.132Z,1.70
2022-12-23T04:28:42.416Z,1.60
2022-12-23T04:31:10.799Z,1.80
2022-12-23T04:33:39.208Z,1.65
2022-12-23T04:36:08.126Z,2.10
2022-12-23T04:38:37.814Z,1.75
2022-12-23T04:41:06.263Z,2.08
2022-12-23T04:43:34.618Z,1.80
2022-12-23T04:46:02.991Z,1.98
2022-12-23T04:48:31.352Z,1.70
2022-12-23T04:51:03.413Z,2.15
2022-12-23T04:53:31.827Z,2.03
2022-12-23T04:56:01.597Z,1.88
2022-12-23T04:58:29.904Z,2.08
2022-12-23T05:01:05.382Z,1.83
2022-12-23T05:06:02.161Z,1.98
2022-12-23T05:08:30.898Z,2.05
2022-12-23T05:10:59.166Z,2.10
2022-12-23T05:13:28.903Z,1.90
2022-12-23T05:15:57.510Z,1.77
2022-12-23T05:18:25.896Z,1.80
2022-12-23T05:20:54.220Z,2.10
2022-12-23T05:23:22.546Z,1.77
2022-12-23T05:25:53.183Z,2.17
2022-12-23T05:28:22.160Z,2.35
2022-12-23T05:30:58.849Z,2.67
2022-12-23T05:33:27.454Z,2.00
2022-12-23T05:35:56.149Z,2.20
2022-12-23T05:38:24.871Z,2.10
2022-12-23T05:40:53.854Z,1.85
2022-12-23T05:43:22.711Z,2.40
2022-12-23T05:45:53.372Z,1.30
2022-12-23T05:48:21.832Z,1.80
2022-12-23T05:50:51.512Z,1.63
2022-12-23T05:53:20.719Z,2.65
2022-12-23T05:55:49.239Z,2.13
2022-12-23T05:58:17.976Z,2.30
2022-12-23T06:00:46.279Z,1.63
2022-12-23T06:03:16.125Z,2.50
2022-12-23T06:05:44.542Z,2.28
2022-12-23T06:08:12.913Z,2.20
2022-12-23T06:10:41.213Z,2.10
2022-12-23T06:13:09.529Z,2.20
2022-12-23T06:15:38.140Z,1.77
2022-12-23T06:18:06.620Z,1.98
2022-12-23T06:20:36.316Z,1.67
2022-12-23T06:23:04.719Z,2.30
2022-12-23T06:25:33.099Z,2.20
2022-12-23T06:28:01.529Z,2.10
2022-12-23T06:30:29.863Z,2.15
2022-12-23T06:32:58.139Z,1.90
2022-12-23T06:35:26.442Z,2.13
2022-12-23T06:37:56.292Z,2.45
2022-12-23T06:40:24.629Z,2.45
2022-12-23T06:42:52.919Z,2.30
2022-12-23T06:45:22.809Z,2.35
2022-12-23T06:47:51.397Z,2.50
2022-12-23T06:50:20.641Z,2.42
2022-12-23T06:52:49.221Z,2.60
2022-12-23T06:55:19.095Z,2.70
2022-12-23T06:57:47.405Z,2.85
2022-12-23T07:00:17.074Z,3.67
2022-12-23T07:02:45.534Z,2.70
2022-12-23T07:05:13.852Z,2.80
2022-12-23T07:07:42.291Z,2.92
2022-12-23T07:10:11.048Z,3.90
2022-12-23T07:12:44.774Z,3.78
2022-12-23T07:15:15.823Z,2.75
2022-12-23T07:17:44.173Z,4.80
2022-12-23T07:20:14.428Z,3.45
2022-12-23T07:22:43.070Z,2.55
2022-12-23T07:25:11.621Z,3.35
2022-12-23T07:27:41.388Z,2.95
2022-12-23T07:30:11.051Z,2.60
2022-12-23T07:35:08.195Z,2.95
2022-12-23T07:37:36.545Z,2.58
2022-12-23T07:40:08.558Z,2.95
2022-12-23T07:42:46.524Z,3.13
2022-12-23T07:45:17.049Z,3.10
2022-12-23T07:47:45.393Z,3.15
2022-12-23T07:50:13.757Z,3.10
2022-12-23T07:52:42.169Z,4.60
2022-12-23T07:55:10.867Z,3.30
2022-12-23T07:57:40.031Z,3.75
2022-12-23T08:00:10.750Z,3.95
2022-12-23T08:02:40.788Z,3.35
2022-12-23T08:05:11.827Z,4.60
2022-12-23T08:07:40.228Z,5.15
2022-12-23T08:10:09.832Z,5.10
2022-12-23T08:12:38.174Z,5.20
2022-12-23T08:15:07.910Z,5.40
2022-12-23T08:17:36.266Z,3.50
2022-12-23T08:20:06.848Z,2.85
2022-12-23T08:22:35.150Z,4.07
2022-12-23T08:25:03.468Z,4.93
2022-12-23T08:27:32.231Z,4.03
2022-12-23T08:30:00.520Z,3.42
2022-12-23T08:32:29.408Z,3.22
2022-12-23T08:34:58.669Z,3.20
2022-12-23T08:37:28.667Z,3.83
2022-12-23T08:39:56.994Z,3.85
2022-12-23T08:42:25.296Z,4.57
2022-12-23T08:44:53.694Z,4.40
2022-12-23T08:47:22.063Z,3.80
2022-12-23T08:49:50.340Z,5.18
2022-12-23T08:52:18.652Z,3.80
2022-12-23T08:54:48.401Z,4.70
2022-12-23T08:57:16.680Z,4.32
2022-12-23T08:59:44.991Z,5.25
2022-12-23T09:02:13.447Z,4.65
2022-12-23T09:04:41.888Z,3.90
2022-12-23T09:07:10.262Z,5.07
2022-12-23T09:09:39.193Z,6.32
2022-12-23T09:12:09.090Z,6.25
2022-12-23T09:14:44.218Z,5.45
2022-12-23T09:17:12.647Z,4.45
2022-12-23T09:19:45.874Z,4.13
2022-12-23T09:22:18.708Z,4.00
2022-12-23T09:24:47.042Z,3.65
2022-12-23T09:27:16.744Z,2.90
2022-12-23T09:29:45.124Z,2.70
2022-12-23T09:32:13.415Z,2.75
2022-12-23T09:34:41.961Z,3.05
2022-12-23T09:37:10.404Z,2.70
2022-12-23T09:39:38.654Z,2.70
2022-12-23T09:42:12.581Z,3.05
2022-12-23T09:44:56.096Z,3.28
2022-12-23T09:47:27.686Z,2.95
2022-12-23T09:49:59.829Z,3.33
2022-12-23T09:52:38.130Z,3.30
2022-12-23T09:55:12.114Z,3.45
2022-12-23T09:57:50.380Z,3.08
2022-12-23T10:00:21.186Z,3.20
2022-12-23T10:03:05.446Z,3.20
2022-12-23T10:05:43.846Z,3.17
2022-12-23T10:08:16.467Z,3.65
2022-12-23T10:10:48.429Z,3.72
2022-12-23T10:13:27.002Z,3.80
2022-12-23T10:15:59.443Z,3.05
2022-12-23T10:18:36.773Z,3.65
2022-12-23T10:21:11.731Z,3.70
2022-12-23T10:23:43.773Z,3.35
2022-12-23T10:26:20.945Z,4.38
2022-12-23T10:28:49.337Z,3.33
2022-12-23T10:31:39.806Z,2.78
2022-12-23T10:34:18.734Z,2.80
2022-12-23T10:36:53.372Z,2.70
2022-12-23T10:39:33.641Z,2.50
2022-12-23T10:42:16.149Z,2.10
2022-12-23T10:45:09.162Z,2.38
2022-12-23T10:47:52.856Z,2.17
2022-12-23T10:50:35.847Z,2.47
2022-12-23T10:53:07.620Z,2.40
2022-12-23T10:55:39.444Z,2.30
2022-12-23T10:58:13.207Z,2.88
2022-12-23T11:00:44.693Z,2.63
2022-12-23T11:03:19.845Z,2.78
2022-12-23T11:05:51.026Z,2.65
2022-12-23T11:08:21.191Z,2.05
2022-12-23T11:10:50.147Z,2.40
2022-12-23T11:13:26.041Z,2.30
2022-12-23T11:15:54.634Z,1.85
2022-12-23T11:18:24.413Z,2.42
2022-12-23T11:21:05.124Z,2.45
2022-12-23T11:23:36.552Z,2.22
2022-12-23T11:26:08.141Z,2.10
2022-12-23T11:28:39.480Z,2.05
2022-12-23T11:31:12.020Z,2.25
2022-12-23T11:33:50.086Z,2.10
2022-12-23T11:36:24.632Z,3.25
2022-12-23T11:38:55.312Z,2.00
2022-12-23T11:41:27.467Z,2.20
2022-12-23T11:43:59.679Z,2.10
2022-12-23T11:46:30.394Z,2.20
2022-12-23T11:49:17.701Z,2.80
2022-12-23T11:51:48.571Z,2.33
2022-12-23T11:54:19.346Z,1.98
2022-12-23T11:56:51.583Z,2.28
2022-12-23T11:59:34.041Z,2.40
2022-12-23T12:02:05.884Z,1.90
2022-12-23T12:04:37.509Z,2.63
2022-12-23T12:07:07.888Z,3.03
2022-12-23T12:09:40.785Z,2.60
2022-12-23T12:12:16.349Z,2.42
2022-12-23T12:14:46.712Z,1.90
2022-12-23T12:17:19.134Z,2.03
2022-12-23T12:20:00.424Z,2.58
2022-12-23T12:22:35.396Z,2.40
2022-12-23T12:25:16.789Z,2.28
2022-12-23T12:30:18.793Z,1.88
2022-12-23T12:33:04.259Z,3.40
2022-12-23T12:35:43.370Z,2.50
2022-12-23T12:38:19.689Z,2.25
2022-12-23T12:40:51.972Z,2.40
2022-12-23T12:43:27.427Z,2.60
2022-12-23T12:46:09.810Z,2.50
2022-12-23T12:48:45.981Z,2.20
2022-12-23T12:51:23.733Z,1.90
2022-12-23T12:54:06.552Z,2.30
2022-12-23T12:56:41.664Z,2.58
2022-12-23T12:59:17.114Z,2.50
2022-12-23T13:01:54.168Z,2.28
2022-12-23T13:04:57.740Z,2.22
2022-12-23T13:07:36.429Z,2.10
2022-12-23T13:10:14.809Z,2.17
2022-12-23T13:12:54.452Z,1.98
2022-12-23T13:15:34.294Z,2.10
2022-12-23T13:18:20.690Z,2.40
2022-12-23T13:20:56.542Z,2.10
2022-12-23T13:23:43.469Z,2.53
2022-12-23T13:26:20.388Z,2.38
2022-12-23T13:29:00.678Z,4.53
2022-12-23T13:31:43.334Z,2.17
2022-12-23T13:34:25.318Z,2.28
2022-12-23T13:37:02.881Z,2.30
2022-12-23T13:39:47.068Z,2.50
2022-12-23T13:42:25.122Z,2.42
2022-12-23T13:44:54.070Z,1.50
2022-12-23T13:50:01.132Z,2.53
2022-12-23T13:52:41.612Z,2.20
2022-12-23T13:55:25.919Z,1.98
2022-12-23T13:57:59.681Z,1.85
2022-12-23T14:00:31.817Z,2.13
2022-12-23T14:03:23.544Z,2.42
2022-12-23T14:05:52.760Z,2.17
2022-12-23T14:08:25.962Z,2.08
2022-12-23T14:10:59.947Z,2.40
2022-12-23T14:13:31.362Z,1.85
2022-12-23T14:16:20.931Z,1.70
2022-12-23T14:19:21.132Z,2.03
2022-12-23T14:21:59.729Z,2.20
2022-12-23T14:24:58.073Z,1.85
2022-12-23T14:27:43.869Z,2.45
2022-12-23T14:30:16.719Z,2.70
2022-12-23T14:32:49.100Z,4.50
2022-12-23T14:35:24.522Z,3.97
2022-12-23T14:38:27.403Z,4.32
2022-12-23T14:41:24.631Z,2.63
2022-12-23T14:44:03.203Z,2.70
2022-12-23T14:46:59.487Z,2.60
2022-12-23T14:49:44.172Z,1.92
2022-12-23T14:52:44.433Z,2.28
2022-12-23T14:55:44.401Z,5.30
2022-12-23T14:58:45.190Z,31.80
2022-12-23T15:01:18.100Z,12.93
2022-12-23T15:03:53.284Z,11.07
2022-12-23T15:06:33.498Z,62.70
2022-12-23T15:09:02.788Z,71.90
2022-12-23T15:11:34.205Z,29.75
2022-12-23T15:14:05.763Z,17.92
2022-12-23T15:16:38.685Z,20.13
2022-12-23T15:19:19.391Z,12.02
2022-12-23T15:21:55.667Z,41.63
2022-12-23T15:24:28.770Z,41.90
2022-12-23T15:27:25.350Z,46.83
2022-12-23T15:29:49.306Z,53.30
2022-12-23T15:32:19.675Z,66.65
2022-12-23T15:34:49.219Z,52.25
2022-12-23T15:37:20.180Z,35.80
2022-12-23T15:39:54.149Z,25.10
2022-12-23T15:42:31.300Z,22.85
2022-12-23T15:44:59.784Z,24.65
2022-12-23T15:47:32.027Z,25.45
2022-12-23T15:50:01.084Z,24.80
2022-12-23T15:52:31.613Z,11.68
2022-12-23T15:55:03.839Z,14.35
2022-12-23T15:57:32.912Z,15.98
2022-12-23T16:00:01.931Z,15.30
2022-12-23T16:03:00.319Z,17.50
2022-12-23T16:05:30.012Z,19.65
2022-12-23T16:08:12.077Z,16.52
2022-12-23T16:10:41.886Z,16.92
2022-12-23T16:13:19.147Z,15.38
2022-12-23T16:15:48.050Z,12.93
2022-12-23T16:18:22.753Z,12.80
2022-12-23T16:20:53.570Z,13.52
2022-12-23T16:23:22.825Z,16.20
2022-12-23T16:25:54.047Z,16.15
2022-12-23T16:28:24.441Z,14.90
2022-12-23T16:30:54.760Z,16.10
2022-12-23T16:33:38.435Z,14.77
2022-12-23T16:36:18.406Z,16.70
2022-12-23T16:38:47.849Z,17.67
2022-12-23T16:41:16.485Z,14.95
2022-12-23T16:43:51.518Z,8.68
2022-12-23T16:46:23.212Z,10.95
2022-12-23T16:48:55.782Z,11.48
2022-12-23T16:51:25.224Z,9.60
2022-12-23T16:53:55.080Z,8.43
2022-12-23T16:56:27.565Z,7.95
2022-12-23T16:58:55.836Z,10.82
2022-12-23T17:01:27.191Z,10.13
2022-12-23T17:03:56.935Z,12.45
2022-12-23T17:06:26.056Z,12.63
2022-12-23T17:08:55.017Z,11.68
2022-12-23T17:11:27.336Z,12.68
2022-12-23T17:14:03.325Z,7.82
2022-12-23T17:16:33.429Z,6.47
2022-12-23T17:19:03.366Z,6.30
2022-12-23T17:21:35.089Z,6.82
2022-12-23T17:24:06.350Z,5.53
2022-12-23T17:26:34.831Z,5.85
2022-12-23T17:29:03.659Z,6.82
2022-12-23T17:31:33.319Z,6.63
2022-12-23T17:34:03.331Z,5.75
2022-12-23T17:36:31.868Z,6.43
2022-12-23T17:39:00.200Z,6.50
2022-12-23T17:41:32.244Z,6.82
2022-12-23T17:44:01.196Z,7.45
2022-12-23T17:46:30.883Z,7.57
2022-12-23T17:48:59.544Z,6.70
2022-12-23T17:51:29.247Z,7.25
2022-12-23T17:53:59.284Z,8.05
2022-12-23T17:56:29.212Z,8.07
2022-12-23T17:58:57.508Z,5.63
2022-12-23T18:01:27.931Z,6.63
2022-12-23T18:03:58.008Z,7.55
2022-12-23T18:06:30.005Z,9.90
2022-12-23T18:08:58.473Z,13.02
2022-12-23T18:11:34.918Z,11.57
2022-12-23T18:14:04.769Z,8.55
2022-12-23T18:16:33.386Z,10.05
2022-12-23T18:19:01.725Z,10.80
2022-12-23T18:21:31.467Z,10.85
2022-12-23T18:24:01.303Z,10.98
2022-12-23T18:26:29.722Z,11.77
2022-12-23T18:28:58.018Z,9.23
2022-12-23T18:31:27.383Z,8.57
2022-12-23T18:33:56.566Z,8.40
2022-12-23T18:36:27.061Z,8.23
2022-12-23T18:38:57.195Z,7.93
2022-12-23T18:41:27.053Z,5.72
2022-12-23T18:43:55.917Z,6.22
2022-12-23T18:46:24.361Z,7.05
2022-12-23T18:48:53.870Z,7.97
2022-12-23T18:51:22.632Z,8.00
2022-12-23T18:53:51.260Z,8.00
2022-12-23T18:56:21.468Z,7.32
2022-12-23T18:58:49.839Z,8.10
2022-12-23T19:01:19.259Z,7.65
2022-12-23T19:03:48.237Z,7.75
2022-12-23T19:06:17.295Z,8.02
2022-12-23T19:08:45.891Z,9.05
2022-12-23T19:11:15.306Z,9.27
2022-12-23T19:13:45.486Z,9.68
2022-12-23T19:16:15.379Z,10.05
2022-12-23T19:18:44.217Z,9.73
2022-12-23T19:21:12.834Z,8.45
2022-12-23T19:23:42.031Z,7.03
2022-12-23T19:26:10.756Z,6.93
2022-12-23T19:28:39.379Z,6.72
2022-12-23T19:31:10.291Z,7.10
2022-12-23T19:33:39.010Z,7.07
2022-12-23T19:36:11.887Z,7.60
2022-12-23T19:38:40.574Z,7.38
2022-12-23T19:41:09.858Z,6.65
2022-12-23T19:43:39.774Z,6.28
2022-12-23T19:46:12.263Z,6.93
2022-12-23T19:48:40.585Z,5.03
2022-12-23T19:51:12.301Z,5.18
2022-12-23T19:53:41.720Z,5.20
2022-12-23T19:56:13.125Z,5.05
2022-12-23T19:58:43.718Z,4.97
2022-12-23T20:01:15.725Z,5.53
2022-12-23T20:03:46.408Z,4.95
2022-12-23T20:06:17.313Z,6.13
2022-12-23T20:08:45.838Z,7.88
2022-12-23T20:11:15.771Z,7.15
2022-12-23T20:13:44.310Z,7.00
2022-12-23T20:16:14.394Z,6.82
2022-12-23T20:18:42.863Z,10.73
2022-12-23T20:21:11.392Z,6.57
2022-12-23T20:23:39.747Z,6.47
2022-12-23T20:26:08.215Z,6.15
2022-12-23T20:28:36.596Z,6.43
2022-12-23T20:31:09.594Z,6.32
2022-12-23T20:33:42.556Z,6.43
2022-12-23T20:36:12.688Z,5.88
2022-12-23T20:38:43.225Z,5.00
2022-12-23T20:41:13.351Z,6.90
2022-12-23T20:43:41.810Z,6.50
2022-12-23T20:46:12.975Z,8.23
2022-12-23T20:48:43.184Z,6.35
2022-12-23T20:51:13.540Z,8.70
2022-12-23T20:53:42.730Z,8.95
2022-12-23T20:56:16.480Z,8.23
2022-12-23T20:58:58.506Z,6.03
2022-12-23T21:01:29.321Z,7.45
2022-12-23T21:04:00.745Z,5.63
2022-12-23T21:06:30.150Z,6.95
2022-12-23T21:09:00.079Z,6.07
2022-12-23T21:11:30.715Z,7.07
2022-12-23T21:14:06.188Z,5.72
2022-12-23T21:16:36.607Z,4.43
2022-12-23T21:19:07.366Z,4.90
2022-12-23T21:21:35.873Z,5.13
2022-12-23T21:24:05.290Z,4.43
2022-12-23T21:26:35.145Z,4.47
2022-12-23T21:29:05.138Z,5.53
2022-12-23T21:31:36.336Z,5.60
2022-12-23T21:34:06.359Z,5.57
2022-12-23T21:36:37.636Z,5.03
2022-12-23T21:39:07.417Z,6.35
2022-12-23T21:41:37.302Z,5.57
2022-12-23T21:44:06.450Z,6.18
2022-12-23T21:46:35.589Z,7.35
2022-12-23T21:49:04.601Z,8.27
2022-12-23T21:51:40.129Z,9.00
2022-12-23T21:54:10.736Z,7.53
2022-12-23T21:56:40.354Z,8.00
2022-12-23T21:59:11.664Z,7.15
2022-12-23T22:01:40.591Z,7.97
2022-12-23T22:04:08.884Z,5.55
2022-12-23T22:06:40.397Z,6.20
2022-12-23T22:09:09.435Z,6.00
2022-12-23T22:11:38.971Z,6.05
2022-12-23T22:14:09.500Z,5.07
2022-12-23T22:16:38.243Z,5.53
2022-12-23T22:19:08.713Z,5.50
2022-12-23T22:21:39.946Z,5.07
2022-12-23T22:24:09.214Z,4.90
2022-12-23T22:26:37.636Z,4.60
2022-12-23T22:29:07.386Z,6.90
2022-12-23T22:31:39.991Z,6.30
2022-12-23T22:34:09.775Z,5.28
2022-12-23T22:36:39.598Z,5.93
2022-12-23T22:39:08.309Z,5.25
2022-12-23T22:41:36.672Z,5.22
2022-12-23T22:44:05.955Z,5.40
2022-12-23T22:46:34.744Z,5.63
2022-12-23T22:49:03.412Z,5.85
2022-12-23T22:51:32.752Z,4.47
2022-12-23T22:54:03.904Z,4.50
2022-12-23T22:56:32.307Z,5.10
2022-12-23T22:59:00.890Z,5.38
2022-12-23T23:01:34.749Z,4.85
2022-12-23T23:04:04.503Z,5.82
2022-12-23T23:06:34.905Z,5.55
2022-12-23T23:09:06.194Z,5.70
2022-12-23T23:11:34.582Z,5.38
2022-12-23T23:14:03.168Z,4.78
2022-12-23T23:16:31.705Z,6.15
2022-12-23T23:19:00.968Z,4.72
2022-12-23T23:21:29.337Z,5.00
2022-12-23T23:24:01.502Z,4.95
2022-12-23T23:26:32.878Z,5.80
2022-12-23T23:29:02.145Z,5.72
2022-12-23T23:31:45.858Z,5.22
2022-12-23T23:34:14.758Z,5.93
2022-12-23T23:36:43.242Z,5.03
2022-12-23T23:39:13.510Z,6.20
2022-12-23T23:41:43.658Z,6.10
2022-12-23T23:44:13.017Z,5.57
2022-12-23T23:49:09.735Z,4.65
2022-12-23T23:51:38.416Z,5.50
2022-12-23T23:54:07.470Z,5.05
2022-12-23T23:56:39.235Z,5.72
2022-12-23T23:59:09.872Z,5.18
